Airport View

Enter AWOS ICAO identifier for current METAR.

ex. KFNL

KSAV 011253Z 27003KT 10SM CLR 17/14 A3006 RMK AO2 SLP177 T01720144

1 Oct 2020 13:20

Phone: 912-966-0364

Other Area AWOS: KSVN - KLHW - KHXD - KNBC

TAF KSAV 011120Z 0112/0212 VRB03KT P6SM SKC FM011500 28005KT P6SM SKC FM012100 19007KT P6SM SKC FM020900 31006KT P6SM FEW200